lycamobile.es alexa rank chart, lycamobile.es alexa rank daily changes

lycamobile.es alexa rank chart, lycamobile.es alexa rank daily changes

lycamobile.es
Actual rank:
80 103

RANK HISTORY

Date Rank Diff
2018/04/20 80 103 -38 818
2018/04/19 118 921 -99 079
2018/04/18 218 000 +100 330
2018/04/17 117 670 +27 025
2018/04/16 90 645 +21 644
2018/04/15 69 001 -34 483
2018/04/14 103 484 -15 079
2018/04/13 118 563 -94 016
2018/04/12 212 579 +142 072
2018/04/11 70 507 +9 884
2018/04/10 60 623 +13 058
2018/04/09 47 565 -15 301
2018/04/08 62 866 -4 063
2018/04/07 66 929 +6 061
2018/04/06 60 868 -34 052
2018/04/05 94 920 +18 148
2018/04/04 76 772 +9 729
2018/04/03 67 043 +2 278
2018/04/02 64 765 -17 227
2018/04/01 81 992 -3 355
2018/03/31 85 347 +21 195
2018/03/30 64 152 -37 673
2018/03/29 101 825 +14 482
2018/03/28 87 343 +14 993
2018/03/27 72 350 -28 080
2018/03/26 100 430 -3 258
2018/03/25 103 688 +24 737
2018/03/24 78 951 +6 001
2018/03/23 72 950 -60 459
2018/03/22 133 409 +60 920
2018/03/21 72 489 -41 561
2018/03/20 114 050 -15 600
2018/03/19 129 650 +55 421
2018/03/18 74 229 -340
2018/03/17 74 569 -3 742
2018/03/16 78 311 -59 627
2018/03/15 137 938 +57 572
2018/03/14 80 366 +9 795
2018/03/13 70 571 -19 455
2018/03/12 90 026 -19 357
2018/03/11 109 383 +32 339
2018/03/10 77 044 -49 816
2018/03/09 126 860 +43 270
2018/03/08 83 590 -13 238
2018/03/07 96 828 -37 215
2018/03/06 134 043 +3 808
2018/03/05 130 235 -40 182
2018/03/04 170 417 +67 362
2018/03/03 103 055 -54 443
2018/03/02 157 498 +77 769
2018/03/01 79 729 +5 230
2018/02/28 74 499 -38 887
2018/02/27 113 386 +32 766
2018/02/26 80 620 -27 064
2018/02/25 107 684 -72 216
2018/02/24 179 900 +70 352
2018/02/23 109 548 +14 080
2018/02/22 95 468 -28 763
2018/02/21 124 231 +42 134
2018/02/20 82 097 -35 791
2018/02/19 117 888

WIDGET FOR YOUR SITE

DOMAINS WITH THE NEAREST RANK

Domain Rank
evoball.net 80 098
meteo.hr 80 099
mp3lqe.co 80 100
azadliq.info 80 101
itsyourturn.com 80 102
lycamobile.es 80 103
myistore.co.za 80 104
minsvyaz.ru 80 105
91p23.space 80 106
forum-1c.ru 80 107
qsuper.qld.gov.au 80 108

DOMAINS WITH THE NEAREST RANK BY TLD .es

Domain Rank
alimarket.es 79 873
diccionariodesinonimos.es 79 910
upo.es 79 912
hofmann.es 80 032
cruzroja.es 80 050
lycamobile.es 80 103
revistaad.es 80 172
ecommerce-news.es 80 369
wimdu.es 80 419
allianz.es 80 422
orangemail.es 80 423